Time;durP1;ratioP1;P1;durP2;ratioP2;P2;SDS_P1;SDS_P2;PMS_P1;PMS_P2;Temp;Humidity;BMP_temperature;BMP_pressure;BME280_temperature;BME280_humidity;BME280_pressure;Samples;Min_cycle;Max_cycle;Signal;HPM_P1;HPM_P2
2021/10/30 00:00:40;;;;;;;16.17;7.35;;;;;;;11.24;75.65;99676.03;5105142;28;20035;-68
2021/10/30 00:03:06;;;;;;;15.45;6.53;;;;;;;11.17;76.63;99680.50;5104929;28;20024;-66
2021/10/30 00:05:32;;;;;;;13.80;6.95;;;;;;;11.10;76.71;99666.78;5105140;28;20046;-67
2021/10/30 00:07:57;;;;;;;17.95;7.75;;;;;;;11.12;76.94;99666.75;5105059;28;20084;-67
2021/10/30 00:10:22;;;;;;;13.15;7.53;;;;;;;11.13;77.45;99682.31;5104925;28;20499;-67
2021/10/30 00:12:48;;;;;;;15.93;8.00;;;;;;;11.20;76.67;99677.84;5104823;28;20066;-66
2021/10/30 00:15:13;;;;;;;16.55;7.22;;;;;;;11.08;77.60;99678.97;5104953;28;20066;-66
2021/10/30 00:17:39;;;;;;;13.73;7.18;;;;;;;11.19;76.73;99670.94;5104675;28;20031;-67
2021/10/30 00:20:05;;;;;;;12.05;7.05;;;;;;;11.15;76.66;99684.88;5104866;28;20015;-67
2021/10/30 00:22:31;;;;;;;18.17;7.80;;;;;;;11.14;76.76;99673.66;5104936;28;20073;-66
2021/10/30 00:24:57;;;;;;;13.32;6.97;;;;;;;11.18;76.40;99681.38;5104890;28;20052;-66
2021/10/30 00:27:22;;;;;;;16.92;6.78;;;;;;;11.12;76.85;99672.81;5104984;28;20039;-67
2021/10/30 00:29:48;;;;;;;12.93;7.55;;;;;;;11.14;76.78;99671.03;5104086;28;20024;-67
2021/10/30 00:32:14;;;;;;;12.05;6.25;;;;;;;11.05;77.50;99666.06;5104447;28;20058;-67
2021/10/30 00:34:39;;;;;;;13.27;7.45;;;;;;;11.13;76.72;99666.72;5104609;28;20121;-68
2021/10/30 00:37:05;;;;;;;11.68;6.15;;;;;;;11.22;75.53;99662.22;5104669;28;20043;-67
2021/10/30 00:39:30;;;;;;;8.88;5.65;;;;;;;11.16;76.14;99663.22;5104672;28;20020;-67
2021/10/30 00:41:56;;;;;;;14.45;6.53;;;;;;;11.15;76.20;99666.69;5104296;28;20104;-67
2021/10/30 00:44:22;;;;;;;14.77;7.68;;;;;;;11.08;76.33;99673.78;5104272;28;20021;-66
2021/10/30 00:46:50;;;;;;;18.50;8.13;;;;;;;11.07;76.41;99676.41;5104099;28;20020;-66
2021/10/30 00:49:17;;;;;;;15.68;7.93;;;;;;;10.98;77.02;99672.25;5104397;28;20028;-66
2021/10/30 00:51:44;;;;;;;11.93;6.07;;;;;;;10.98;77.13;99667.94;5104297;28;20050;-67
2021/10/30 00:54:12;;;;;;;17.70;7.45;;;;;;;10.89;76.91;99653.38;5104468;28;20042;-66
2021/10/30 00:56:41;;;;;;;16.33;7.97;;;;;;;11.02;75.91;99655.75;5104385;28;20023;-66
2021/10/30 00:59:11;;;;;;;10.48;6.63;;;;;;;11.04;75.78;99664.34;5104178;28;20103;-66
2021/10/30 01:01:41;;;;;;;14.15;7.90;;;;;;;10.96;75.99;99653.28;5104483;28;20078;-68
2021/10/30 01:04:07;;;;;;;12.52;6.10;;;;;;;10.93;75.99;99655.94;5085405;28;20058;-67
2021/10/30 01:06:34;;;;;;;13.25;7.47;;;;;;;10.84;76.79;99655.25;5104047;28;20024;-67
2021/10/30 01:09:00;;;;;;;18.77;7.90;;;;;;;10.79;76.90;99662.28;5119676;28;20032;-67
2021/10/30 01:11:26;;;;;;;14.35;8.63;;;;;;;10.72;77.99;99655.53;5104118;28;20028;-67
2021/10/30 01:13:54;;;;;;;16.60;7.63;;;;;;;10.76;76.98;99649.38;5103935;28;20099;-67
2021/10/30 01:16:21;;;;;;;16.65;8.63;;;;;;;10.83;76.19;99648.34;5103466;28;20027;-67
2021/10/30 01:18:47;;;;;;;17.35;8.80;;;;;;;10.77;76.49;99656.25;5104081;28;20019;-67
2021/10/30 01:21:14;;;;;;;13.13;7.78;;;;;;;10.73;76.80;99652.03;5103827;28;20607;-67
2021/10/30 01:23:39;;;;;;;15.65;8.13;;;;;;;10.78;76.43;99655.41;5103864;28;20024;-68
2021/10/30 01:26:05;;;;;;;15.27;8.70;;;;;;;10.64;77.06;99648.75;5103629;28;20051;-68
2021/10/30 01:28:35;;;;;;;13.75;7.88;;;;;;;10.61;77.20;99646.22;5103842;28;20034;-66
2021/10/30 01:31:00;;;;;;;10.10;6.30;;;;;;;10.75;76.18;99632.94;5103839;28;20051;-67
2021/10/30 01:33:27;;;;;;;16.92;9.88;;;;;;;10.52;77.66;99649.00;5103528;28;20047;-67
2021/10/30 01:35:53;;;;;;;17.23;9.77;;;;;;;10.57;77.53;99644.56;5103695;28;20020;-67
2021/10/30 01:38:19;;;;;;;20.63;9.35;;;;;;;10.59;77.04;99639.34;5103459;28;20062;-67
2021/10/30 01:40:53;;;;;;;17.58;9.60;;;;;;;10.61;76.75;99628.03;5103319;28;20055;-67
2021/10/30 01:43:19;;;;;;;16.20;6.32;;;;;;;10.59;77.00;99640.19;5103458;28;20076;-67
2021/10/30 01:45:45;;;;;;;13.00;8.13;;;;;;;10.69;76.67;99640.00;5103217;28;20463;-67
2021/10/30 01:48:11;;;;;;;16.88;8.50;;;;;;;10.69;76.35;99630.47;5103368;28;20020;-67
2021/10/30 01:50:41;;;;;;;11.52;6.55;;;;;;;10.63;76.89;99628.00;5102711;28;20083;-67
2021/10/30 01:53:06;;;;;;;18.85;10.82;;;;;;;10.55;77.20;99625.56;5102888;28;20043;-66
2021/10/30 01:55:37;;;;;;;14.60;9.02;;;;;;;10.41;78.02;99625.84;5103225;28;20436;-66
2021/10/30 01:58:04;;;;;;;22.38;11.90;;;;;;;10.34;78.88;99622.50;5103423;28;20396;-67
2021/10/30 02:00:30;;;;;;;17.60;11.27;;;;;;;10.47;78.46;99620.53;5103237;28;20024;-67
2021/10/30 02:02:55;;;;;;;19.55;10.52;;;;;;;10.41;78.84;99621.47;5103156;28;20053;-66
2021/10/30 02:05:21;;;;;;;11.77;6.95;;;;;;;10.65;77.93;99629.66;5103209;28;20027;-68
2021/10/30 02:07:47;;;;;;;24.15;10.70;;;;;;;10.49;78.51;99623.09;5103158;28;20058;-67
2021/10/30 02:10:14;;;;;;;23.15;12.68;;;;;;;10.48;78.63;99621.41;5103155;28;20050;-67
2021/10/30 02:12:40;;;;;;;22.27;10.55;;;;;;;10.59;78.18;99624.59;5084940;28;20058;-67
2021/10/30 02:15:06;;;;;;;19.13;9.65;;;;;;;10.41;78.87;99629.25;5103062;28;20027;-68
2021/10/30 02:17:32;;;;;;;22.83;13.85;;;;;;;10.35;79.48;99636.34;5102912;28;20076;-67
2021/10/30 02:19:58;;;;;;;23.35;14.55;;;;;;;10.23;80.42;99633.09;5102959;28;20024;-67
2021/10/30 02:22:24;;;;;;;28.02;15.20;;;;;;;10.17;80.96;99641.84;5103037;28;20039;-67
2021/10/30 02:24:50;;;;;;;30.08;14.98;;;;;;;10.15;81.55;99634.97;5102912;28;20047;-67
2021/10/30 02:27:15;;;;;;;28.63;15.15;;;;;;;10.12;81.65;99630.72;5103006;28;20032;-67
2021/10/30 02:29:40;;;;;;;34.15;13.25;;;;;;;10.17;81.85;99636.66;5102758;28;20255;-67
2021/10/30 02:32:06;;;;;;;30.48;15.50;;;;;;;10.13;81.82;99642.78;5102850;28;20020;-67
2021/10/30 02:34:32;;;;;;;30.63;15.98;;;;;;;10.16;81.65;99629.75;5102906;28;20101;-67
2021/10/30 02:36:57;;;;;;;27.52;14.57;;;;;;;10.17;81.59;99628.88;5102653;28;20075;-68
2021/10/30 02:39:23;;;;;;;29.75;14.32;;;;;;;10.20;81.26;99630.56;5102654;28;20028;-68
2021/10/30 02:41:48;;;;;;;31.35;18.48;;;;;;;10.20;81.35;99627.09;5101380;28;20024;-68
2021/10/30 02:44:14;;;;;;;31.10;18.00;;;;;;;10.19;81.63;99625.41;5102282;28;20027;-67
2021/10/30 02:46:39;;;;;;;31.65;16.40;;;;;;;10.29;81.45;99626.91;5102678;28;20441;-67
2021/10/30 02:49:06;;;;;;;31.17;18.02;;;;;;;10.12;81.73;99619.47;5102714;28;20020;-68
2021/10/30 02:51:31;;;;;;;24.52;12.18;;;;;;;10.27;81.49;99624.34;5103035;28;20464;-68
2021/10/30 02:53:56;;;;;;;28.50;15.45;;;;;;;10.25;81.61;99620.09;5106541;28;20024;-68
2021/10/30 02:56:22;;;;;;;34.28;18.55;;;;;;;10.17;82.00;99631.44;5105386;28;20088;-67
2021/10/30 02:58:48;;;;;;;33.53;17.85;;;;;;;10.09;82.62;99641.16;5106184;28;20028;-67
2021/10/30 03:01:13;;;;;;;33.17;17.35;;;;;;;10.11;82.59;99634.16;5106203;28;20063;-68
2021/10/30 03:03:39;;;;;;;26.73;13.98;;;;;;;10.28;81.63;99620.91;5087798;28;20031;-69
2021/10/30 03:06:04;;;;;;;31.55;17.73;;;;;;;10.15;82.23;99629.78;5106296;28;20499;-68
2021/10/30 03:08:29;;;;;;;29.38;15.15;;;;;;;10.09;82.69;99622.13;5106480;28;20118;-67
2021/10/30 03:10:55;;;;;;;32.75;19.20;;;;;;;10.02;83.10;99635.22;5106251;28;20229;-67
2021/10/30 03:13:20;;;;;;;31.45;14.75;;;;;;;10.02;83.57;99627.44;5106292;28;20020;-69
2021/10/30 03:15:46;;;;;;;38.97;17.60;;;;;;;10.08;83.47;99628.22;5106061;28;20057;-68
2021/10/30 03:18:11;;;;;;;37.13;20.67;;;;;;;10.04;83.58;99612.72;5106531;28;20054;-69
2021/10/30 03:20:37;;;;;;;39.08;19.35;;;;;;;10.12;83.50;99627.25;5105988;28;20020;-68
2021/10/30 03:23:02;;;;;;;36.72;19.38;;;;;;;10.11;83.67;99628.97;5106186;28;20016;-68
2021/10/30 03:25:28;;;;;;;38.28;19.15;;;;;;;10.20;83.42;99621.91;5106035;28;20063;-69
2021/10/30 03:27:53;;;;;;;43.33;22.40;;;;;;;10.10;83.84;99606.53;5106214;28;20028;-68
2021/10/30 03:30:19;;;;;;;34.65;18.10;;;;;;;10.21;83.58;99618.47;5105944;28;20028;-68
2021/10/30 03:32:44;;;;;;;45.72;22.13;;;;;;;10.08;84.47;99629.03;5105961;28;20434;-68
2021/10/30 03:35:10;;;;;;;38.63;19.60;;;;;;;10.20;84.08;99624.50;5105929;28;20024;-68
2021/10/30 03:37:36;;;;;;;32.40;17.95;;;;;;;10.20;83.68;99617.59;5106196;28;20024;-68
2021/10/30 03:40:04;;;;;;;24.92;11.82;;;;;;;10.46;82.71;99612.75;5105504;28;20024;-68
2021/10/30 03:42:30;;;;;;;24.88;12.20;;;;;;;10.44;82.49;99617.13;5087370;28;20097;-69
2021/10/30 03:44:56;;;;;;;37.33;22.48;;;;;;;10.30;82.84;99613.09;5105455;28;20066;-67
2021/10/30 03:47:22;;;;;;;37.17;20.33;;;;;;;10.27;83.41;99613.16;5105037;28;20020;-67
2021/10/30 03:49:47;;;;;;;43.97;23.45;;;;;;;10.19;83.83;99622.81;5105495;28;20035;-69
2021/10/30 03:52:12;;;;;;;29.27;15.35;;;;;;;10.26;83.57;99612.28;5105456;28;20024;-68
2021/10/30 03:54:38;;;;;;;48.63;24.38;;;;;;;10.20;84.01;99622.78;5105579;28;20027;-68
2021/10/30 03:57:03;;;;;;;39.90;21.27;;;;;;;10.21;84.43;99611.50;5086948;28;20045;-68
2021/10/30 03:59:29;;;;;;;34.05;21.38;;;;;;;10.23;84.48;99621.84;5105441;28;20032;-67
2021/10/30 04:01:54;;;;;;;45.83;26.60;;;;;;;10.21;84.25;99614.09;5105083;28;20031;-67
2021/10/30 04:04:20;;;;;;;27.83;15.32;;;;;;;10.37;83.69;99618.97;5103506;28;20448;-68
2021/10/30 04:06:45;;;;;;;35.20;17.98;;;;;;;10.25;84.20;99625.28;5086834;28;20111;-68
2021/10/30 04:09:11;;;;;;;45.72;24.08;;;;;;;10.19;84.32;99639.25;5105492;28;20031;-68
2021/10/30 04:11:36;;;;;;;42.95;23.15;;;;;;;10.13;84.92;99639.31;5104406;28;20083;-68
2021/10/30 04:14:02;;;;;;;53.20;26.85;;;;;;;10.01;85.51;99637.84;5104986;28;20020;-68
2021/10/30 04:16:28;;;;;;;50.45;27.52;;;;;;;10.10;85.60;99661.00;5086622;28;20100;-68
2021/10/30 04:18:56;;;;;;;46.88;26.27;;;;;;;10.16;85.85;99655.69;5105118;28;20028;-68
2021/10/30 04:21:22;;;;;;;51.15;27.40;;;;;;;10.17;86.05;99664.34;5105232;28;20016;-68
2021/10/30 04:23:47;;;;;;;51.88;28.02;;;;;;;10.22;86.14;99669.44;5105192;28;20158;-68
2021/10/30 04:26:13;;;;;;;54.72;29.52;;;;;;;10.15;86.46;99669.56;5086567;28;20531;-69
2021/10/30 04:28:38;;;;;;;53.15;29.77;;;;;;;10.24;86.08;99668.50;5105019;28;20020;-68
2021/10/30 04:31:08;;;;;;;52.33;28.23;;;;;;;10.16;86.54;99668.66;5104893;28;20020;-68
2021/10/30 04:33:35;;;;;;;58.67;30.45;;;;;;;10.23;86.53;99684.09;5104628;28;20024;-68
2021/10/30 04:36:13;;;;;;;57.10;30.98;;;;;;;10.25;86.75;99679.75;5104770;28;20031;-68
2021/10/30 04:38:39;;;;;;;55.13;32.20;;;;;;;10.25;86.92;99684.94;5104843;28;20019;-68
2021/10/30 04:41:04;;;;;;;64.25;33.10;;;;;;;10.23;87.10;99674.59;5104719;28;20054;-69
2021/10/30 04:43:29;;;;;;;55.70;31.55;;;;;;;10.29;86.44;99658.91;5104371;28;20049;-68
2021/10/30 04:45:55;;;;;;;62.58;33.03;;;;;;;10.21;86.80;99662.56;5104567;28;20023;-68
2021/10/30 04:48:20;;;;;;;57.08;33.50;;;;;;;10.17;87.27;99669.53;5104420;28;20100;-68
2021/10/30 04:50:45;;;;;;;65.68;34.95;;;;;;;10.10;87.17;99654.94;5104411;28;20031;-68
2021/10/30 04:53:11;;;;;;;62.17;35.95;;;;;;;10.15;87.50;99668.69;5104425;28;20028;-70
2021/10/30 04:55:37;;;;;;;77.65;37.05;;;;;;;10.14;87.21;99675.59;5104302;28;20024;-68
2021/10/30 04:58:02;;;;;;;70.05;35.70;;;;;;;10.14;87.26;99680.78;5104324;28;20038;-68
2021/10/30 05:00:27;;;;;;;66.55;36.60;;;;;;;10.06;87.60;99671.47;5104299;28;20042;-69
2021/10/30 05:02:53;;;;;;;72.55;36.50;;;;;;;10.08;87.79;99677.47;5104332;28;20086;-69
2021/10/30 05:05:18;;;;;;;78.40;39.55;;;;;;;10.10;87.34;99684.34;5103923;28;20027;-69
2021/10/30 05:07:43;;;;;;;80.35;39.78;;;;;;;10.01;87.63;99685.38;5104371;28;20092;-67
2021/10/30 05:10:09;;;;;;;72.20;34.63;;;;;;;9.92;88.17;99694.16;5104273;28;20031;-67
2021/10/30 05:12:34;;;;;;;84.88;40.15;;;;;;;9.97;87.76;99680.28;5104199;28;20101;-67
2021/10/30 05:15:00;;;;;;;84.70;42.22;;;;;;;9.82;88.74;99692.63;5103661;28;20016;-66
2021/10/30 05:17:25;;;;;;;95.43;45.47;;;;;;;9.78;89.25;99696.13;5103950;28;20016;-66
2021/10/30 05:19:50;;;;;;;94.30;44.40;;;;;;;9.78;89.47;99690.94;5103817;28;20038;-67
2021/10/30 05:22:16;;;;;;;97.18;46.78;;;;;;;9.77;89.55;99686.66;5103908;28;20083;-67
2021/10/30 05:24:41;;;;;;;101.97;44.55;;;;;;;9.77;89.68;99681.47;5103476;28;20536;-66
2021/10/30 05:27:06;;;;;;;90.55;42.58;;;;;;;9.86;89.09;99665.75;5103557;28;20028;-66
2021/10/30 05:29:32;;;;;;;107.68;50.17;;;;;;;9.77;89.71;99681.47;5103530;28;20024;-66
2021/10/30 05:31:57;;;;;;;107.65;47.33;;;;;;;9.81;90.06;99696.06;5103560;28;20031;-67
2021/10/30 05:34:22;;;;;;;103.32;49.42;;;;;;;9.77;90.35;99700.47;5103772;28;20044;-66
2021/10/30 05:36:50;;;;;;;91.10;44.35;;;;;;;9.82;90.09;99689.16;5103714;28;20024;-67
2021/10/30 05:39:17;;;;;;;96.78;48.38;;;;;;;9.80;90.10;99684.00;5103487;28;20035;-67
2021/10/30 05:41:45;;;;;;;83.15;39.70;;;;;;;9.94;90.26;99682.88;5103503;28;20024;-68
2021/10/30 05:44:11;;;;;;;87.55;42.58;;;;;;;9.89;90.67;99688.16;5103589;28;20028;-67
2021/10/30 05:46:40;;;;;;;95.53;42.55;;;;;;;10.01;90.09;99685.38;5103465;28;20035;-67
2021/10/30 05:49:09;;;;;;;65.97;29.52;;;;;;;9.87;90.44;99676.97;5103482;28;20016;-67
2021/10/30 05:51:38;;;;;;;81.75;34.95;;;;;;;9.96;90.19;99691.50;5103226;28;20058;-67
2021/10/30 05:54:03;;;;;;;108.88;46.58;;;;;;;9.92;90.64;99694.16;5103336;28;20051;-68
2021/10/30 05:56:32;;;;;;;108.28;48.20;;;;;;;9.91;90.82;99694.19;5103161;28;20020;-68
2021/10/30 05:58:57;;;;;;;107.18;48.03;;;;;;;10.01;90.80;99694.88;5103294;28;20111;-67
2021/10/30 06:01:23;;;;;;;88.65;44.00;;;;;;;9.94;91.06;99688.06;5103180;28;20031;-68
2021/10/30 06:03:49;;;;;;;101.28;46.72;;;;;;;9.99;91.00;99701.81;5103172;28;20565;-68
2021/10/30 06:06:17;;;;;;;95.20;41.10;;;;;;;10.03;90.94;99708.69;5103351;28;20189;-68
2021/10/30 06:08:43;;;;;;;117.80;50.22;;;;;;;9.94;91.32;99708.81;5103310;28;20020;-69
2021/10/30 06:11:08;;;;;;;103.10;48.22;;;;;;;9.94;91.42;99701.91;5103182;28;20028;-69
2021/10/30 06:13:33;;;;;;;115.88;51.95;;;;;;;10.06;91.22;99715.56;5103110;28;20021;-69
2021/10/30 06:15:59;;;;;;;106.38;48.95;;;;;;;10.08;91.07;99712.03;5103353;28;20026;-68
2021/10/30 06:18:24;;;;;;;108.10;52.83;;;;;;;9.99;91.63;99701.81;5103390;28;20043;-68
2021/10/30 06:20:52;;;;;;;114.18;51.53;;;;;;;10.12;91.03;99716.31;5103035;28;20142;-69
2021/10/30 06:23:18;;;;;;;115.75;52.50;;;;;;;10.09;91.47;99716.34;5103277;28;20454;-69
2021/10/30 06:25:43;;;;;;;116.47;49.90;;;;;;;10.15;91.14;99715.38;5102652;28;20078;-68
2021/10/30 06:28:10;;;;;;;118.95;54.38;;;;;;;10.19;91.01;99723.97;5106136;28;20099;-70
2021/10/30 06:30:35;;;;;;;102.00;44.92;;;;;;;10.23;91.03;99710.06;5107145;28;20020;-71
2021/10/30 06:33:01;;;;;;;104.65;45.92;;;;;;;10.27;90.38;99716.91;5107078;28;20482;-71
2021/10/30 06:35:26;;;;;;;117.80;52.65;;;;;;;10.26;90.65;99713.44;5106838;28;20016;-71
2021/10/30 06:37:52;;;;;;;88.55;39.85;;;;;;;10.17;90.77;99711.03;5107091;28;20031;-72
2021/10/30 06:40:20;;;;;;;82.50;34.70;;;;;;;10.25;90.77;99706.56;5106883;28;20023;-72
2021/10/30 06:42:45;;;;;;;108.10;45.65;;;;;;;10.16;91.22;99710.16;5106844;28;20088;-71
2021/10/30 06:45:11;;;;;;;98.97;44.25;;;;;;;10.08;91.00;99693.03;5106876;28;20087;-73
2021/10/30 06:47:37;;;;;;;74.22;30.63;;;;;;;10.16;91.20;99704.97;5106781;28;20177;-74
2021/10/30 06:50:04;;;;;;;54.35;22.50;;;;;;;10.44;89.84;99700.16;5106833;28;20502;-74
2021/10/30 06:52:36;;;;;;;103.68;43.83;;;;;;;10.25;90.24;99703.09;5106677;28;20050;-74
2021/10/30 06:55:06;;;;;;;106.38;42.15;;;;;;;10.11;91.11;99717.16;5106784;28;20043;-74
2021/10/30 06:57:32;;;;;;;88.50;36.58;;;;;;;10.17;91.03;99705.84;5106644;28;20028;-75
2021/10/30 06:59:59;;;;;;;64.90;26.98;;;;;;;10.17;90.73;99705.84;5106759;28;20142;-75
2021/10/30 07:02:25;;;;;;;86.22;40.25;;;;;;;10.12;91.11;99708.53;5106605;28;20114;-75
2021/10/30 07:04:50;;;;;;;118.43;48.78;;;;;;;10.19;90.86;99705.81;5106222;28;20073;-74
2021/10/30 07:07:16;;;;;;;116.43;52.05;;;;;;;10.02;92.10;99731.16;5106462;28;20045;-74
2021/10/30 07:09:41;;;;;;;96.80;42.70;;;;;;;10.10;91.83;99720.66;5106367;28;20062;-73
2021/10/30 07:12:07;;;;;;;117.00;49.70;;;;;;;10.11;92.16;99730.13;5106464;28;20125;-71
2021/10/30 07:14:34;;;;;;;79.45;36.03;;;;;;;10.12;92.20;99721.50;5106302;28;20012;-74
2021/10/30 07:17:00;;;;;;;65.03;31.67;;;;;;;10.46;90.30;99724.34;5106128;28;20028;-73
2021/10/30 07:19:25;;;;;;;98.43;40.67;;;;;;;10.29;90.94;99730.69;5106396;28;20027;-73
2021/10/30 07:21:51;;;;;;;72.53;30.77;;;;;;;10.42;91.09;99741.72;5106362;28;20048;-76
2021/10/30 07:24:16;;;;;;;70.13;33.78;;;;;;;10.31;91.05;99739.31;5106292;28;20024;-75
2021/10/30 07:26:42;;;;;;;111.85;47.00;;;;;;;10.31;91.00;99754.00;5105690;28;20108;-77
2021/10/30 07:29:07;;;;;;;91.85;39.45;;;;;;;10.25;91.24;99755.84;5105993;28;20046;-76
2021/10/30 07:31:35;;;;;;;93.13;38.55;;;;;;;10.15;92.15;99757.75;5105867;28;20049;-75
2021/10/30 07:34:03;;;;;;;73.75;32.05;;;;;;;10.26;91.77;99741.13;5105780;28;20024;-72
2021/10/30 07:36:29;;;;;;;78.72;36.58;;;;;;;10.44;90.92;99759.84;5105747;28;20103;-73
2021/10/30 07:38:54;;;;;;;104.47;46.40;;;;;;;10.28;91.71;99767.91;5105481;28;20028;-71
2021/10/30 07:41:23;;;;;;;104.78;42.90;;;;;;;10.29;91.60;99777.38;5087201;28;20031;-71
2021/10/30 07:43:53;;;;;;;53.08;22.48;;;;;;;10.49;91.24;99779.69;5105685;28;20468;-73
2021/10/30 07:46:20;;;;;;;103.30;46.20;;;;;;;10.29;91.91;99783.44;5105397;28;20105;-70
2021/10/30 07:48:45;;;;;;;98.93;48.58;;;;;;;10.24;92.61;99784.41;5105933;28;20013;-71
2021/10/30 07:51:11;;;;;;;111.78;49.53;;;;;;;10.26;92.89;99790.41;5105294;28;20020;-70
2021/10/30 07:53:39;;;;;;;92.95;42.58;;;;;;;10.37;92.71;99793.69;5105618;28;20024;-71
2021/10/30 07:56:04;;;;;;;99.57;41.80;;;;;;;10.38;92.24;99791.97;5105034;28;20024;-70
2021/10/30 07:58:33;;;;;;;94.35;43.97;;;;;;;10.40;92.68;99797.94;5086862;28;20123;-70
2021/10/30 08:00:58;;;;;;;93.43;43.70;;;;;;;10.57;91.76;99794.25;5105318;28;20020;-70
2021/10/30 08:03:24;;;;;;;101.63;45.63;;;;;;;10.50;92.29;99803.88;5105056;28;20053;-70
2021/10/30 08:05:49;;;;;;;93.45;44.85;;;;;;;10.48;92.49;99795.28;5105040;28;20023;-75
2021/10/30 08:08:14;;;;;;;79.50;39.47;;;;;;;10.59;92.37;99805.47;5105112;28;20487;-72
2021/10/30 08:10:40;;;;;;;92.13;43.20;;;;;;;10.69;92.16;99806.16;5105095;28;20020;-72
2021/10/30 08:13:09;;;;;;;79.65;41.78;;;;;;;10.76;91.46;99807.75;5105059;28;20020;-72
2021/10/30 08:15:35;;;;;;;83.10;42.72;;;;;;;10.71;91.78;99804.38;5104822;28;20472;-71
2021/10/30 08:18:01;;;;;;;69.97;34.80;;;;;;;10.77;91.82;99806.84;5105134;28;20035;-69
2021/10/30 08:20:26;;;;;;;73.55;32.97;;;;;;;10.83;91.85;99808.50;5105071;28;20012;-71
2021/10/30 08:22:52;;;;;;;80.68;41.30;;;;;;;10.84;91.66;99813.66;5103994;28;20024;-71
2021/10/30 08:25:17;;;;;;;74.82;37.30;;;;;;;10.76;92.18;99803.41;5104093;28;20063;-71
2021/10/30 08:27:42;;;;;;;72.55;34.72;;;;;;;10.88;91.55;99812.69;5104626;28;20016;-71
2021/10/30 08:30:09;;;;;;;70.97;37.72;;;;;;;10.84;91.73;99811.06;5104267;28;20389;-71
2021/10/30 08:32:34;;;;;;;74.75;39.20;;;;;;;10.87;91.58;99811.00;5104233;28;20069;-71
2021/10/30 08:34:59;;;;;;;72.40;36.08;;;;;;;10.94;91.09;99811.75;5104402;28;20043;-71
2021/10/30 08:37:25;;;;;;;80.57;37.28;;;;;;;10.95;90.98;99812.56;5104470;28;20024;-71
2021/10/30 08:39:50;;;;;;;69.28;35.60;;;;;;;10.97;90.50;99801.28;5104107;28;20027;-71
2021/10/30 08:42:15;;;;;;;72.25;36.65;;;;;;;10.91;90.66;99789.25;5104352;28;20047;-71
2021/10/30 08:44:41;;;;;;;78.78;40.92;;;;;;;10.88;91.67;99791.91;5104710;28;20016;-70
2021/10/30 08:47:07;;;;;;;71.18;36.85;;;;;;;10.95;91.59;99791.78;5086151;28;20256;-70
2021/10/30 08:49:37;;;;;;;79.72;39.15;;;;;;;11.05;91.25;99795.06;5103889;28;20360;-70
2021/10/30 08:52:04;;;;;;;70.80;36.58;;;;;;;11.06;91.10;99796.78;5104743;28;20357;-70
2021/10/30 08:54:30;;;;;;;76.35;39.20;;;;;;;11.07;90.54;99794.16;5104568;28;20016;-68
2021/10/30 08:56:55;;;;;;;79.43;40.20;;;;;;;11.05;90.85;99795.94;5104577;28;20146;-71
2021/10/30 08:59:39;;;;;;;81.82;40.65;;;;;;;11.08;91.20;99795.88;5104510;28;20020;-70
2021/10/30 09:02:04;;;;;;;73.28;36.78;;;;;;;11.11;90.89;99794.94;5103562;28;20034;-71
2021/10/30 09:04:30;;;;;;;64.40;34.50;;;;;;;11.14;90.48;99789.69;5104246;28;20024;-70
2021/10/30 09:07:01;;;;;;;66.25;38.42;;;;;;;11.13;90.10;99778.44;5104059;28;20024;-70
2021/10/30 09:09:28;;;;;;;69.10;34.65;;;;;;;11.22;90.08;99787.78;5104070;28;20027;-71
2021/10/30 09:12:01;;;;;;;65.70;36.33;;;;;;;11.22;89.68;99785.19;5104169;28;20028;-70
2021/10/30 09:14:31;;;;;;;63.28;35.15;;;;;;;11.21;90.14;99782.63;5103808;28;20503;-70
2021/10/30 09:17:12;;;;;;;69.22;34.58;;;;;;;11.30;89.77;99782.44;5085363;28;20020;-70
2021/10/30 09:19:46;;;;;;;58.70;26.20;;;;;;;11.37;89.10;99778.78;5103732;28;20036;-70
2021/10/30 09:22:12;;;;;;;51.95;24.70;;;;;;;11.28;89.07;99779.84;5103567;28;20380;-69
2021/10/30 09:25:02;;;;;;;73.15;35.53;;;;;;;11.20;88.81;99776.56;5103529;28;20039;-69
2021/10/30 09:28:02;;;;;;;67.60;33.88;;;;;;;11.15;89.75;99794.84;5103977;28;20028;-70
2021/10/30 09:30:32;;;;;;;39.33;20.67;;;;;;;11.21;89.27;99791.28;5103602;28;20054;-70
2021/10/30 09:33:05;;;;;;;70.03;38.40;;;;;;;11.13;88.87;99785.38;5103627;28;20016;-69
2021/10/30 09:35:41;;;;;;;72.50;38.22;;;;;;;11.11;89.75;99793.22;5103568;28;20099;-70
2021/10/30 09:38:10;;;;;;;69.22;35.42;;;;;;;11.13;90.68;99799.22;5103926;28;20020;-69
2021/10/30 09:40:36;;;;;;;68.78;37.17;;;;;;;11.06;90.93;99784.66;5103472;28;20020;-69
2021/10/30 09:43:11;;;;;;;60.58;31.38;;;;;;;11.32;90.75;99803.19;5103543;28;20527;-70
2021/10/30 09:45:44;;;;;;;68.43;36.05;;;;;;;11.33;91.05;99804.88;5103259;28;20069;-69
2021/10/30 09:48:10;;;;;;;70.07;35.92;;;;;;;11.42;90.86;99799.50;5103482;28;20044;-69
2021/10/30 09:50:36;;;;;;;67.80;37.28;;;;;;;11.48;90.02;99788.97;5103210;28;20043;-69
2021/10/30 09:53:39;;;;;;;58.40;30.88;;;;;;;11.59;89.99;99793.06;5103519;28;20048;-70
2021/10/30 09:56:11;;;;;;;35.35;18.50;;;;;;;11.77;88.46;99791.81;5103342;28;20027;-70
2021/10/30 09:58:37;;;;;;;55.95;30.13;;;;;;;11.70;88.06;99800.63;5103201;28;20024;-70
2021/10/30 10:01:07;;;;;;;55.38;30.55;;;;;;;11.62;88.10;99793.88;5103070;28;20049;-70
2021/10/30 10:03:34;;;;;;;54.85;29.60;;;;;;;11.75;88.74;99796.16;5103135;28;20482;-70
2021/10/30 10:06:02;;;;;;;53.05;30.27;;;;;;;11.80;89.27;99794.31;5103226;28;20395;-70
2021/10/30 10:08:27;;;;;;;60.08;33.90;;;;;;;11.80;89.69;99799.53;5103422;28;20024;-70
2021/10/30 10:10:57;;;;;;;52.58;27.77;;;;;;;11.89;89.11;99798.44;5103424;28;20027;-70
2021/10/30 10:13:23;;;;;;;46.92;26.95;;;;;;;12.02;87.86;99797.28;5103318;28;20012;-71
2021/10/30 10:15:50;;;;;;;56.60;30.70;;;;;;;11.90;87.28;99802.78;5103039;28;20024;-71
2021/10/30 10:18:16;;;;;;;40.90;20.15;;;;;;;11.92;86.72;99795.78;5103233;28;20020;-71
2021/10/30 10:20:42;;;;;;;52.63;25.00;;;;;;;11.64;87.35;99781.69;5102964;28;20024;-71
2021/10/30 10:23:08;;;;;;;57.38;31.40;;;;;;;11.68;87.67;99805.84;5102868;28;20107;-70
2021/10/30 10:25:35;;;;;;;56.13;31.38;;;;;;;11.55;88.54;99791.44;5102753;28;20072;-71
2021/10/30 10:28:24;;;;;;;62.45;32.38;;;;;;;11.59;88.71;99806.94;5102627;28;20028;-70
2021/10/30 10:30:57;;;;;;;51.22;29.75;;;;;;;11.64;88.67;99814.63;5102912;28;20020;-69
2021/10/30 10:33:23;;;;;;;58.58;32.80;;;;;;;11.56;89.20;99809.59;5103020;28;20093;-69
2021/10/30 10:36:13;;;;;;;55.50;33.80;;;;;;;11.68;88.97;99818.84;5102923;28;20492;-70
2021/10/30 10:38:57;;;;;;;57.13;29.80;;;;;;;11.72;88.41;99817.91;5102984;28;20031;-69
2021/10/30 10:41:38;;;;;;;53.08;30.95;;;;;;;11.64;88.56;99815.50;5102923;28;20035;-69
2021/10/30 10:44:37;;;;;;;58.33;31.27;;;;;;;11.68;88.05;99820.63;5102876;28;20020;-70
2021/10/30 10:47:04;;;;;;;62.22;34.25;;;;;;;11.54;88.40;99816.56;5080305;28;20036;-70
2021/10/30 10:49:34;;;;;;;52.95;31.30;;;;;;;11.69;88.55;99820.59;5102742;28;20476;-69
2021/10/30 10:52:15;;;;;;;54.03;30.83;;;;;;;11.70;89.30;99814.47;5102962;28;20028;-69
2021/10/30 10:54:53;;;;;;;52.28;28.25;;;;;;;11.93;87.48;99813.09;5102795;28;20027;-70
2021/10/30 10:57:26;;;;;;;58.90;33.33;;;;;;;11.91;86.63;99812.28;5102589;28;20617;-69
2021/10/30 10:59:58;;;;;;;49.58;30.45;;;;;;;11.76;87.77;99803.06;5102836;28;20043;-70
2021/10/30 11:02:30;;;;;;;53.65;32.45;;;;;;;11.81;87.92;99796.03;5084240;28;20032;-70
2021/10/30 11:05:07;;;;;;;39.33;20.37;;;;;;;11.98;86.47;99786.97;5102821;28;20046;-70
2021/10/30 11:07:37;;;;;;;57.35;33.08;;;;;;;11.74;86.84;99787.50;5102792;28;20043;-70
2021/10/30 11:10:14;;;;;;;45.67;25.42;;;;;;;11.72;87.55;99785.84;5102814;28;20027;-70
2021/10/30 11:12:42;;;;;;;52.25;30.67;;;;;;;11.67;88.46;99780.75;5103246;28;20386;-70
2021/10/30 11:15:10;;;;;;;53.70;28.45;;;;;;;11.84;88.06;99776.88;5106298;28;20071;-69
2021/10/30 11:18:06;;;;;;;48.53;30.63;;;;;;;11.87;88.11;99777.69;5106054;28;20038;-69
2021/10/30 11:20:37;;;;;;;48.47;29.88;;;;;;;11.95;88.37;99781.84;5106308;28;20024;-69